Salacak — 3FBM4 — position and weather

sailwx.info

Track history (hours):
 
Tides and Currents Weather Stations Pressure Air Temp Water Temp Dewpoint Dewpoint Depression Visibility Wind Speed Wind Dir Waves Ship Positions

Salacak

Last reported at 2016-Jun-26 18:31 UTC. Time now 2016-Jun-26 19:11 UTC.
Position N 44°44' E 037°47'.

Length 126 m; draft 5.4 m.

Type: Cargo ship. MMSI: 373532000.

Date/timePositionNaut miles runAvg speedWind from/ knotsBaromVisibWave heightAir tempDewpointWater temp
2016-Jun-26 18:31N 44°44' E 037°47'0 0.0
2016-Jun-26 17:31N 44°44' E 037°47'0 0.0
2016-Jun-26 16:28N 44°44' E 037°47'0 0.0
2016-Jun-26 15:31N 44°44' E 037°47'0 0.0
2016-Jun-26 14:34N 44°44' E 037°47'0 0.0
2016-Jun-26 13:33N 44°44' E 037°47'0 0.0
2016-Jun-26 12:33N 44°44' E 037°47'0 0.0
2016-Jun-26 11:33N 44°44' E 037°47'0 0.0
2016-Jun-26 10:33N 44°44' E 037°47'0 0.2
2016-Jun-26 09:34N 44°44' E 037°48'5 5.1
2016-Jun-26 08:33N 44°39' E 037°51'5 4.9
2016-Jun-26 07:33N 44°35' E 037°56'0 0.3
2016-Jun-26 06:31N 44°36' E 037°55'0 0.0
2016-Jun-26 05:31N 44°36' E 037°55'0 0.0
2016-Jun-26 04:31N 44°36' E 037°55'0 0.0
2016-Jun-26 03:31N 44°36' E 037°55'0 0.1
2016-Jun-26 02:31N 44°36' E 037°55'0 0.0
2016-Jun-26 01:31N 44°36' E 037°55'0 0.0
2016-Jun-26 00:31N 44°36' E 037°55'0 0.0
2016-Jun-25 23:31N 44°36' E 037°55'0 0.0
2016-Jun-25 22:31N 44°36' E 037°55'0 0.0
2016-Jun-25 21:31N 44°36' E 037°55'0 0.0
2016-Jun-25 20:31N 44°36' E 037°55'0 0.0
2016-Jun-25 19:31N 44°36' E 037°55'0 0.0
2016-Jun-25 18:31N 44°36' E 037°55'0 0.0
2016-Jun-25 17:31N 44°36' E 037°55'0 0.0
2016-Jun-25 16:31N 44°36' E 037°55'0 0.0
2016-Jun-25 15:31N 44°36' E 037°55'0 0.0
2016-Jun-25 14:31N 44°36' E 037°55'0 0.0
2016-Jun-25 13:31N 44°36' E 037°55'0 0.0
2016-Jun-25 12:31N 44°36' E 037°55'1 1.0
2016-Jun-25 11:33N 44°35' E 037°54'1010.1
2016-Jun-25 10:33N 44°30' E 037°42'1111.1
2016-Jun-25 09:33N 44°25' E 037°28'5210.5
2016-Jun-25 04:33N 44°10' E 036°18'6310.6
2016-Jun-24 22:33N 44°16' E 034°50'1111.0
2016-Jun-24 21:34N 44°15' E 034°34'1110.9
2016-Jun-24 20:34N 44°15' E 034°19'109 9.9
2016-Jun-24 09:32N 44°13' E 031°47'1110.9
2016-Jun-24 08:33N 44°13' E 031°32'1111.1
2016-Jun-24 07:33N 44°13' E 031°17'  
Track history (hours):
 
Tides and Currents Weather Stations Pressure Air Temp Water Temp Dewpoint Dewpoint Depression Visibility Wind Speed Wind Dir Waves Ship Positions

Salacak

Last reported at 2016-Jun-26 18:31 UTC. Time now 2016-Jun-26 19:11 UTC.
Position N 44°44' E 037°47'.

Length 126 m; draft 5.4 m.

Type: Cargo ship. MMSI: 373532000.

Date/timePositionNaut miles runAvg speedWind from/ knotsBaromVisibWave heightAir tempDewpointWater temp
2016-Jun-26 18:31N 44°44' E 037°47'0 0.0
2016-Jun-26 17:31N 44°44' E 037°47'0 0.0
2016-Jun-26 16:28N 44°44' E 037°47'0 0.0
2016-Jun-26 15:31N 44°44' E 037°47'0 0.0
2016-Jun-26 14:34N 44°44' E 037°47'0 0.0
2016-Jun-26 13:33N 44°44' E 037°47'0 0.0
2016-Jun-26 12:33N 44°44' E 037°47'0 0.0
2016-Jun-26 11:33N 44°44' E 037°47'0 0.0
2016-Jun-26 10:33N 44°44' E 037°47'0 0.2
2016-Jun-26 09:34N 44°44' E 037°48'5 5.1
2016-Jun-26 08:33N 44°39' E 037°51'5 4.9
2016-Jun-26 07:33N 44°35' E 037°56'0 0.3
2016-Jun-26 06:31N 44°36' E 037°55'0 0.0
2016-Jun-26 05:31N 44°36' E 037°55'0 0.0
2016-Jun-26 04:31N 44°36' E 037°55'0 0.0
2016-Jun-26 03:31N 44°36' E 037°55'0 0.1
2016-Jun-26 02:31N 44°36' E 037°55'0 0.0
2016-Jun-26 01:31N 44°36' E 037°55'0 0.0
2016-Jun-26 00:31N 44°36' E 037°55'0 0.0
2016-Jun-25 23:31N 44°36' E 037°55'0 0.0
2016-Jun-25 22:31N 44°36' E 037°55'0 0.0
2016-Jun-25 21:31N 44°36' E 037°55'0 0.0
2016-Jun-25 20:31N 44°36' E 037°55'0 0.0
2016-Jun-25 19:31N 44°36' E 037°55'0 0.0
2016-Jun-25 18:31N 44°36' E 037°55'0 0.0
2016-Jun-25 17:31N 44°36' E 037°55'0 0.0
2016-Jun-25 16:31N 44°36' E 037°55'0 0.0
2016-Jun-25 15:31N 44°36' E 037°55'0 0.0
2016-Jun-25 14:31N 44°36' E 037°55'0 0.0
2016-Jun-25 13:31N 44°36' E 037°55'0 0.0
2016-Jun-25 12:31N 44°36' E 037°55'1 1.0
2016-Jun-25 11:33N 44°35' E 037°54'1010.1
2016-Jun-25 10:33N 44°30' E 037°42'1111.1
2016-Jun-25 09:33N 44°25' E 037°28'5210.5
2016-Jun-25 04:33N 44°10' E 036°18'6310.6
2016-Jun-24 22:33N 44°16' E 034°50'1111.0
2016-Jun-24 21:34N 44°15' E 034°34'1110.9
2016-Jun-24 20:34N 44°15' E 034°19'109 9.9
2016-Jun-24 09:32N 44°13' E 031°47'1110.9
2016-Jun-24 08:33N 44°13' E 031°32'1111.1
2016-Jun-24 07:33N 44°13' E 031°17'  

Dump ship's entire track history